sensor_id;sensor_type;location;lat;lon;timestamp;pressure;altitude;pressure_sealevel;temperature
76898;BMP180;65856;52.178;21.176;2023-04-15T00:00:24;99746.20;;;10.80
76898;BMP180;65856;52.178;21.176;2023-04-15T00:02:52;99741.40;;;10.80
76898;BMP180;65856;52.178;21.176;2023-04-15T00:05:20;99738.00;;;10.80
76898;BMP180;65856;52.178;21.176;2023-04-15T00:07:48;99738.40;;;10.80
76898;BMP180;65856;52.178;21.176;2023-04-15T00:10:16;99747.00;;;10.80
76898;BMP180;65856;52.178;21.176;2023-04-15T00:12:44;99740.80;;;10.78
76898;BMP180;65856;52.178;21.176;2023-04-15T00:15:12;99742.80;;;10.80
76898;BMP180;65856;52.178;21.176;2023-04-15T00:17:40;99736.20;;;10.76
76898;BMP180;65856;52.178;21.176;2023-04-15T00:20:10;99745.40;;;10.72
76898;BMP180;65856;52.178;21.176;2023-04-15T00:22:38;99737.40;;;10.74
76898;BMP180;65856;52.178;21.176;2023-04-15T00:25:07;99742.60;;;10.76
76898;BMP180;65856;52.178;21.176;2023-04-15T00:27:35;99738.80;;;10.70
76898;BMP180;65856;52.178;21.176;2023-04-15T00:30:05;99733.60;;;10.70
76898;BMP180;65856;52.178;21.176;2023-04-15T00:32:33;99738.00;;;10.60
76898;BMP180;65856;52.178;21.176;2023-04-15T00:35:01;99735.00;;;10.52
76898;BMP180;65856;52.178;21.176;2023-04-15T00:37:30;99739.20;;;10.50
76898;BMP180;65856;52.178;21.176;2023-04-15T00:39:58;99740.00;;;10.40
76898;BMP180;65856;52.178;21.176;2023-04-15T00:42:27;99735.20;;;10.40
76898;BMP180;65856;52.178;21.176;2023-04-15T00:44:55;99732.20;;;10.40
76898;BMP180;65856;52.178;21.176;2023-04-15T00:47:23;99731.60;;;10.40
76898;BMP180;65856;52.178;21.176;2023-04-15T00:49:51;99732.40;;;10.40
76898;BMP180;65856;52.178;21.176;2023-04-15T00:52:19;99734.60;;;10.40
76898;BMP180;65856;52.178;21.176;2023-04-15T00:54:47;99732.20;;;10.40
76898;BMP180;65856;52.178;21.176;2023-04-15T00:57:15;99734.80;;;10.40
76898;BMP180;65856;52.178;21.176;2023-04-15T00:59:43;99738.80;;;10.40
76898;BMP180;65856;52.178;21.176;2023-04-15T01:02:11;99737.00;;;10.30
76898;BMP180;65856;52.178;21.176;2023-04-15T01:04:39;99738.00;;;10.30
76898;BMP180;65856;52.178;21.176;2023-04-15T01:07:08;99732.20;;;10.30
76898;BMP180;65856;52.178;21.176;2023-04-15T01:09:36;99731.40;;;10.30
76898;BMP180;65856;52.178;21.176;2023-04-15T01:12:05;99732.20;;;10.28
76898;BMP180;65856;52.178;21.176;2023-04-15T01:14:34;99731.20;;;10.22
76898;BMP180;65856;52.178;21.176;2023-04-15T01:17:03;99721.00;;;10.20
76898;BMP180;65856;52.178;21.176;2023-04-15T01:19:31;99723.40;;;10.20
76898;BMP180;65856;52.178;21.176;2023-04-15T01:21:59;99725.20;;;10.20
76898;BMP180;65856;52.178;21.176;2023-04-15T01:24:29;99724.20;;;10.20
76898;BMP180;65856;52.178;21.176;2023-04-15T01:26:58;99726.40;;;10.20
76898;BMP180;65856;52.178;21.176;2023-04-15T01:29:26;99725.80;;;10.20
76898;BMP180;65856;52.178;21.176;2023-04-15T01:31:56;99728.20;;;10.20
76898;BMP180;65856;52.178;21.176;2023-04-15T01:34:23;99725.40;;;10.20
76898;BMP180;65856;52.178;21.176;2023-04-15T01:36:52;99719.40;;;10.20
76898;BMP180;65856;52.178;21.176;2023-04-15T01:39:20;99722.00;;;10.20
76898;BMP180;65856;52.178;21.176;2023-04-15T01:41:48;99724.00;;;10.18
76898;BMP180;65856;52.178;21.176;2023-04-15T01:44:15;99726.40;;;10.10
76898;BMP180;65856;52.178;21.176;2023-04-15T01:46:43;99722.00;;;10.10
76898;BMP180;65856;52.178;21.176;2023-04-15T01:49:11;99718.80;;;10.10
76898;BMP180;65856;52.178;21.176;2023-04-15T01:51:39;99720.80;;;10.10
76898;BMP180;65856;52.178;21.176;2023-04-15T01:54:07;99722.00;;;10.10
76898;BMP180;65856;52.178;21.176;2023-04-15T01:56:35;99721.60;;;10.10
76898;BMP180;65856;52.178;21.176;2023-04-15T01:59:03;99722.80;;;10.10
76898;BMP180;65856;52.178;21.176;2023-04-15T02:01:30;99727.00;;;10.10
76898;BMP180;65856;52.178;21.176;2023-04-15T02:03:59;99724.80;;;10.10
76898;BMP180;65856;52.178;21.176;2023-04-15T02:06:27;99724.00;;;10.10
76898;BMP180;65856;52.178;21.176;2023-04-15T02:08:55;99719.20;;;10.02
76898;BMP180;65856;52.178;21.176;2023-04-15T02:11:23;99712.60;;;10.00
76898;BMP180;65856;52.178;21.176;2023-04-15T02:13:51;99711.60;;;10.00
76898;BMP180;65856;52.178;21.176;2023-04-15T02:16:20;99718.60;;;10.00
76898;BMP180;65856;52.178;21.176;2023-04-15T02:18:48;99713.40;;;10.00
76898;BMP180;65856;52.178;21.176;2023-04-15T02:21:18;99716.80;;;9.96
76898;BMP180;65856;52.178;21.176;2023-04-15T02:23:46;99715.80;;;9.92
76898;BMP180;65856;52.178;21.176;2023-04-15T02:26:14;99710.40;;;9.90
76898;BMP180;65856;52.178;21.176;2023-04-15T02:28:43;99714.60;;;9.90
76898;BMP180;65856;52.178;21.176;2023-04-15T02:31:11;99716.20;;;9.94
76898;BMP180;65856;52.178;21.176;2023-04-15T02:33:39;99714.40;;;9.98
76898;BMP180;65856;52.178;21.176;2023-04-15T02:36:07;99712.00;;;9.92
76898;BMP180;65856;52.178;21.176;2023-04-15T02:38:36;99716.60;;;9.90
76898;BMP180;65856;52.178;21.176;2023-04-15T02:41:06;99715.80;;;9.90
76898;BMP180;65856;52.178;21.176;2023-04-15T02:43:35;99712.60;;;9.90
76898;BMP180;65856;52.178;21.176;2023-04-15T02:46:03;99712.00;;;9.90
76898;BMP180;65856;52.178;21.176;2023-04-15T02:48:31;99711.00;;;9.86
76898;BMP180;65856;52.178;21.176;2023-04-15T02:51:13;99708.40;;;9.80
76898;BMP180;65856;52.178;21.176;2023-04-15T02:53:42;99707.20;;;9.80
76898;BMP180;65856;52.178;21.176;2023-04-15T02:56:10;99710.80;;;9.80
76898;BMP180;65856;52.178;21.176;2023-04-15T02:58:39;99704.60;;;9.80
76898;BMP180;65856;52.178;21.176;2023-04-15T03:01:07;99704.40;;;9.80
76898;BMP180;65856;52.178;21.176;2023-04-15T03:06:41;99713.60;;;9.72
76898;BMP180;65856;52.178;21.176;2023-04-15T03:09:12;99714.60;;;9.70
76898;BMP180;65856;52.178;21.176;2023-04-15T03:11:42;99710.40;;;9.70
76898;BMP180;65856;52.178;21.176;2023-04-15T03:14:14;99707.80;;;9.70
76898;BMP180;65856;52.178;21.176;2023-04-15T03:16:45;99716.00;;;9.70
76898;BMP180;65856;52.178;21.176;2023-04-15T03:19:16;99712.60;;;9.70
76898;BMP180;65856;52.178;21.176;2023-04-15T03:21:46;99717.00;;;9.70
76898;BMP180;65856;52.178;21.176;2023-04-15T03:24:17;99716.20;;;9.70
76898;BMP180;65856;52.178;21.176;2023-04-15T03:26:48;99715.60;;;9.72
76898;BMP180;65856;52.178;21.176;2023-04-15T03:29:19;99712.80;;;9.72
76898;BMP180;65856;52.178;21.176;2023-04-15T03:31:49;99711.00;;;9.78
76898;BMP180;65856;52.178;21.176;2023-04-15T03:34:20;99716.40;;;9.80
76898;BMP180;65856;52.178;21.176;2023-04-15T03:36:51;99718.00;;;9.80
76898;BMP180;65856;52.178;21.176;2023-04-15T03:39:22;99718.00;;;9.80
76898;BMP180;65856;52.178;21.176;2023-04-15T03:41:53;99721.20;;;9.80
76898;BMP180;65856;52.178;21.176;2023-04-15T03:44:24;99710.80;;;9.80
76898;BMP180;65856;52.178;21.176;2023-04-15T03:51:55;99721.20;;;9.80
76898;BMP180;65856;52.178;21.176;2023-04-15T03:54:26;99717.60;;;9.80
76898;BMP180;65856;52.178;21.176;2023-04-15T03:56:57;99724.20;;;9.80
76898;BMP180;65856;52.178;21.176;2023-04-15T03:59:28;99727.40;;;9.80
76898;BMP180;65856;52.178;21.176;2023-04-15T04:01:59;99728.20;;;9.70
76898;BMP180;65856;52.178;21.176;2023-04-15T04:04:29;99728.00;;;9.70
76898;BMP180;65856;52.178;21.176;2023-04-15T04:07:00;99727.80;;;9.70
76898;BMP180;65856;52.178;21.176;2023-04-15T04:09:31;99732.60;;;9.70
76898;BMP180;65856;52.178;21.176;2023-04-15T04:12:01;99730.20;;;9.70
76898;BMP180;65856;52.178;21.176;2023-04-15T04:14:32;99733.20;;;9.64
76898;BMP180;65856;52.178;21.176;2023-04-15T04:17:03;99728.40;;;9.60
76898;BMP180;65856;52.178;21.176;2023-04-15T04:19:34;99732.20;;;9.60
76898;BMP180;65856;52.178;21.176;2023-04-15T04:22:04;99725.80;;;9.60
76898;BMP180;65856;52.178;21.176;2023-04-15T04:24:35;99727.40;;;9.60
76898;BMP180;65856;52.178;21.176;2023-04-15T04:27:06;99725.60;;;9.60
76898;BMP180;65856;52.178;21.176;2023-04-15T04:29:36;99729.80;;;9.60
76898;BMP180;65856;52.178;21.176;2023-04-15T04:32:07;99729.60;;;9.60
76898;BMP180;65856;52.178;21.176;2023-04-15T04:34:38;99731.20;;;9.60
76898;BMP180;65856;52.178;21.176;2023-04-15T04:37:09;99733.40;;;9.60
76898;BMP180;65856;52.178;21.176;2023-04-15T04:39:39;99730.60;;;9.60
76898;BMP180;65856;52.178;21.176;2023-04-15T04:42:10;99730.80;;;9.60
76898;BMP180;65856;52.178;21.176;2023-04-15T04:44:41;99728.60;;;9.58
76898;BMP180;65856;52.178;21.176;2023-04-15T04:47:11;99727.40;;;9.50
76898;BMP180;65856;52.178;21.176;2023-04-15T04:49:42;99727.80;;;9.50
76898;BMP180;65856;52.178;21.176;2023-04-15T04:52:13;99725.40;;;9.50
76898;BMP180;65856;52.178;21.176;2023-04-15T04:54:44;99727.60;;;9.50
76898;BMP180;65856;52.178;21.176;2023-04-15T04:57:15;99725.20;;;9.50
76898;BMP180;65856;52.178;21.176;2023-04-15T04:59:46;99726.20;;;9.50
76898;BMP180;65856;52.178;21.176;2023-04-15T05:02:17;99730.40;;;9.50
76898;BMP180;65856;52.178;21.176;2023-04-15T05:07:34;99725.40;;;9.50
76898;BMP180;65856;52.178;21.176;2023-04-15T05:10:08;99726.20;;;9.50
76898;BMP180;65856;52.178;21.176;2023-04-15T05:12:39;99733.80;;;9.50
76898;BMP180;65856;52.178;21.176;2023-04-15T05:15:11;99732.00;;;9.50
76898;BMP180;65856;52.178;21.176;2023-04-15T05:17:42;99731.00;;;9.52
76898;BMP180;65856;52.178;21.176;2023-04-15T05:20:16;99732.00;;;9.54
76898;BMP180;65856;52.178;21.176;2023-04-15T05:22:47;99730.00;;;9.58
76898;BMP180;65856;52.178;21.176;2023-04-15T05:25:18;99735.60;;;9.58
76898;BMP180;65856;52.178;21.176;2023-04-15T05:27:48;99733.20;;;9.60
76898;BMP180;65856;52.178;21.176;2023-04-15T05:30:20;99731.40;;;9.60
76898;BMP180;65856;52.178;21.176;2023-04-15T05:32:51;99731.20;;;9.60
76898;BMP180;65856;52.178;21.176;2023-04-15T05:35:22;99731.60;;;9.60
76898;BMP180;65856;52.178;21.176;2023-04-15T05:37:53;99732.20;;;9.60
76898;BMP180;65856;52.178;21.176;2023-04-15T05:40:24;99734.00;;;9.60
76898;BMP180;65856;52.178;21.176;2023-04-15T05:42:56;99739.80;;;9.60
76898;BMP180;65856;52.178;21.176;2023-04-15T05:45:27;99739.80;;;9.58
76898;BMP180;65856;52.178;21.176;2023-04-15T05:47:58;99737.80;;;9.58
76898;BMP180;65856;52.178;21.176;2023-04-15T05:50:28;99736.80;;;9.50
76898;BMP180;65856;52.178;21.176;2023-04-15T06:00:10;99739.80;;;9.56
76898;BMP180;65856;52.178;21.176;2023-04-15T06:02:39;99742.40;;;9.52
76898;BMP180;65856;52.178;21.176;2023-04-15T06:05:08;99740.40;;;9.52
76898;BMP180;65856;52.178;21.176;2023-04-15T06:07:38;99736.40;;;9.50
76898;BMP180;65856;52.178;21.176;2023-04-15T06:10:09;99737.80;;;9.50
76898;BMP180;65856;52.178;21.176;2023-04-15T06:12:37;99742.60;;;9.58
76898;BMP180;65856;52.178;21.176;2023-04-15T06:15:08;99743.60;;;9.50
76898;BMP180;65856;52.178;21.176;2023-04-15T06:17:37;99748.60;;;9.50
76898;BMP180;65856;52.178;21.176;2023-04-15T06:20:07;99753.80;;;9.50
76898;BMP180;65856;52.178;21.176;2023-04-15T06:22:37;99753.20;;;9.50
76898;BMP180;65856;52.178;21.176;2023-04-15T06:25:08;99753.80;;;9.52
76898;BMP180;65856;52.178;21.176;2023-04-15T06:27:36;99753.40;;;9.60
76898;BMP180;65856;52.178;21.176;2023-04-15T06:30:07;99753.20;;;9.60
76898;BMP180;65856;52.178;21.176;2023-04-15T06:32:35;99754.60;;;9.60
76898;BMP180;65856;52.178;21.176;2023-04-15T06:35:04;99756.60;;;9.60
76898;BMP180;65856;52.178;21.176;2023-04-15T06:37:32;99758.00;;;9.60
76898;BMP180;65856;52.178;21.176;2023-04-15T06:40:00;99756.20;;;9.60
76898;BMP180;65856;52.178;21.176;2023-04-15T06:42:28;99759.60;;;9.60
76898;BMP180;65856;52.178;21.176;2023-04-15T06:44:56;99762.60;;;9.60
76898;BMP180;65856;52.178;21.176;2023-04-15T06:47:24;99759.80;;;9.60
76898;BMP180;65856;52.178;21.176;2023-04-15T06:49:52;99758.60;;;9.60
76898;BMP180;65856;52.178;21.176;2023-04-15T06:52:20;99764.00;;;9.60
76898;BMP180;65856;52.178;21.176;2023-04-15T06:54:48;99760.60;;;9.60
76898;BMP180;65856;52.178;21.176;2023-04-15T06:57:16;99765.00;;;9.60
76898;BMP180;65856;52.178;21.176;2023-04-15T06:59:44;99768.20;;;9.58
76898;BMP180;65856;52.178;21.176;2023-04-15T07:02:13;99770.20;;;9.60
76898;BMP180;65856;52.178;21.176;2023-04-15T07:07:01;99773.00;;;9.60
76898;BMP180;65856;52.178;21.176;2023-04-15T07:09:29;99769.00;;;9.60
76898;BMP180;65856;52.178;21.176;2023-04-15T07:11:58;99775.00;;;9.60
76898;BMP180;65856;52.178;21.176;2023-04-15T07:14:26;99783.00;;;9.66
76898;BMP180;65856;52.178;21.176;2023-04-15T07:16:55;99776.80;;;9.70
76898;BMP180;65856;52.178;21.176;2023-04-15T07:19:23;99782.60;;;9.70
76898;BMP180;65856;52.178;21.176;2023-04-15T07:21:51;99785.80;;;9.70
76898;BMP180;65856;52.178;21.176;2023-04-15T07:24:19;99787.00;;;9.70
76898;BMP180;65856;52.178;21.176;2023-04-15T07:26:49;99785.80;;;9.70
76898;BMP180;65856;52.178;21.176;2023-04-15T07:29:17;99786.80;;;9.70
76898;BMP180;65856;52.178;21.176;2023-04-15T07:31:45;99783.80;;;9.70
76898;BMP180;65856;52.178;21.176;2023-04-15T07:34:13;99787.60;;;9.60
76898;BMP180;65856;52.178;21.176;2023-04-15T07:36:41;99786.20;;;9.60
76898;BMP180;65856;52.178;21.176;2023-04-15T07:39:09;99785.60;;;9.60
76898;BMP180;65856;52.178;21.176;2023-04-15T07:41:37;99785.60;;;9.62
76898;BMP180;65856;52.178;21.176;2023-04-15T07:44:05;99784.80;;;9.60
76898;BMP180;65856;52.178;21.176;2023-04-15T07:46:33;99778.80;;;9.60
76898;BMP180;65856;52.178;21.176;2023-04-15T07:49:01;99778.20;;;9.70
76898;BMP180;65856;52.178;21.176;2023-04-15T07:51:29;99779.00;;;9.70
76898;BMP180;65856;52.178;21.176;2023-04-15T07:53:57;99782.60;;;9.70
76898;BMP180;65856;52.178;21.176;2023-04-15T07:56:25;99782.00;;;9.70
76898;BMP180;65856;52.178;21.176;2023-04-15T07:58:53;99784.80;;;9.70
76898;BMP180;65856;52.178;21.176;2023-04-15T08:01:21;99784.40;;;9.74
76898;BMP180;65856;52.178;21.176;2023-04-15T08:03:49;99782.80;;;9.70
76898;BMP180;65856;52.178;21.176;2023-04-15T08:06:17;99782.80;;;9.70
76898;BMP180;65856;52.178;21.176;2023-04-15T08:08:45;99782.40;;;9.70
76898;BMP180;65856;52.178;21.176;2023-04-15T08:11:14;99786.60;;;9.70
76898;BMP180;65856;52.178;21.176;2023-04-15T08:13:42;99781.00;;;9.70
76898;BMP180;65856;52.178;21.176;2023-04-15T08:16:22;99783.40;;;9.80
76898;BMP180;65856;52.178;21.176;2023-04-15T08:18:53;99787.20;;;9.80
76898;BMP180;65856;52.178;21.176;2023-04-15T08:21:22;99780.20;;;9.80
76898;BMP180;65856;52.178;21.176;2023-04-15T08:23:51;99779.60;;;9.80
76898;BMP180;65856;52.178;21.176;2023-04-15T08:26:20;99777.60;;;9.84
76898;BMP180;65856;52.178;21.176;2023-04-15T08:28:49;99783.20;;;9.90
76898;BMP180;65856;52.178;21.176;2023-04-15T08:31:18;99781.80;;;9.90
76898;BMP180;65856;52.178;21.176;2023-04-15T08:33:47;99792.20;;;9.90
76898;BMP180;65856;52.178;21.176;2023-04-15T08:36:15;99786.00;;;10.00
76898;BMP180;65856;52.178;21.176;2023-04-15T08:38:44;99786.00;;;10.00
76898;BMP180;65856;52.178;21.176;2023-04-15T08:41:21;99788.20;;;10.00
76898;BMP180;65856;52.178;21.176;2023-04-15T08:43:56;99789.00;;;10.00
76898;BMP180;65856;52.178;21.176;2023-04-15T08:46:24;99793.00;;;10.00
76898;BMP180;65856;52.178;21.176;2023-04-15T08:48:56;99791.60;;;10.00
76898;BMP180;65856;52.178;21.176;2023-04-15T08:51:25;99790.40;;;10.10
76898;BMP180;65856;52.178;21.176;2023-04-15T08:53:54;99793.80;;;10.10
76898;BMP180;65856;52.178;21.176;2023-04-15T08:56:25;99789.80;;;10.14
76898;BMP180;65856;52.178;21.176;2023-04-15T08:58:54;99792.80;;;10.20
76898;BMP180;65856;52.178;21.176;2023-04-15T09:01:24;99793.20;;;10.20
76898;BMP180;65856;52.178;21.176;2023-04-15T09:03:52;99792.40;;;10.20
76898;BMP180;65856;52.178;21.176;2023-04-15T09:06:21;99790.20;;;10.20
76898;BMP180;65856;52.178;21.176;2023-04-15T09:08:50;99794.00;;;10.20
76898;BMP180;65856;52.178;21.176;2023-04-15T09:11:19;99794.60;;;10.28
76898;BMP180;65856;52.178;21.176;2023-04-15T09:13:48;99789.00;;;10.20
76898;BMP180;65856;52.178;21.176;2023-04-15T09:16:16;99789.80;;;10.20
76898;BMP180;65856;52.178;21.176;2023-04-15T09:18:44;99794.20;;;10.20
76898;BMP180;65856;52.178;21.176;2023-04-15T09:21:15;99791.80;;;10.22
76898;BMP180;65856;52.178;21.176;2023-04-15T09:23:55;99795.40;;;10.30
76898;BMP180;65856;52.178;21.176;2023-04-15T09:26:32;99793.20;;;10.30
76898;BMP180;65856;52.178;21.176;2023-04-15T09:29:06;99795.40;;;10.30
76898;BMP180;65856;52.178;21.176;2023-04-15T09:31:34;99797.80;;;10.30
76898;BMP180;65856;52.178;21.176;2023-04-15T09:34:03;99793.20;;;10.30
76898;BMP180;65856;52.178;21.176;2023-04-15T09:36:51;99799.00;;;10.30
76898;BMP180;65856;52.178;21.176;2023-04-15T09:39:19;99800.60;;;10.30
76898;BMP180;65856;52.178;21.176;2023-04-15T09:42:03;99797.40;;;10.30
76898;BMP180;65856;52.178;21.176;2023-04-15T09:44:33;99799.60;;;10.30
76898;BMP180;65856;52.178;21.176;2023-04-15T09:47:01;99802.20;;;10.40
76898;BMP180;65856;52.178;21.176;2023-04-15T09:49:29;99804.20;;;10.40
76898;BMP180;65856;52.178;21.176;2023-04-15T09:52:00;99803.40;;;10.40
76898;BMP180;65856;52.178;21.176;2023-04-15T09:54:35;99808.80;;;10.40
76898;BMP180;65856;52.178;21.176;2023-04-15T09:57:07;99806.00;;;10.42
76898;BMP180;65856;52.178;21.176;2023-04-15T09:59:36;99805.40;;;10.50
76898;BMP180;65856;52.178;21.176;2023-04-15T10:02:05;99814.60;;;10.54
76898;BMP180;65856;52.178;21.176;2023-04-15T10:04:39;99813.80;;;10.60
76898;BMP180;65856;52.178;21.176;2023-04-15T10:07:09;99808.40;;;10.60
76898;BMP180;65856;52.178;21.176;2023-04-15T10:09:38;99813.80;;;10.60
76898;BMP180;65856;52.178;21.176;2023-04-15T10:12:07;99815.00;;;10.64
76898;BMP180;65856;52.178;21.176;2023-04-15T10:14:37;99823.20;;;10.70
76898;BMP180;65856;52.178;21.176;2023-04-15T10:17:10;99817.80;;;10.70
76898;BMP180;65856;52.178;21.176;2023-04-15T10:19:39;99813.80;;;10.70
76898;BMP180;65856;52.178;21.176;2023-04-15T10:22:08;99815.80;;;10.70
76898;BMP180;65856;52.178;21.176;2023-04-15T10:24:38;99815.60;;;10.70
76898;BMP180;65856;52.178;21.176;2023-04-15T10:27:07;99819.00;;;10.70
76898;BMP180;65856;52.178;21.176;2023-04-15T10:29:35;99816.60;;;10.74
76898;BMP180;65856;52.178;21.176;2023-04-15T10:32:04;99814.20;;;10.80
76898;BMP180;65856;52.178;21.176;2023-04-15T10:34:33;99812.00;;;10.74
76898;BMP180;65856;52.178;21.176;2023-04-15T10:37:03;99819.40;;;10.70
76898;BMP180;65856;52.178;21.176;2023-04-15T10:39:44;99814.20;;;10.80
76898;BMP180;65856;52.178;21.176;2023-04-15T10:42:14;99817.20;;;10.78
76898;BMP180;65856;52.178;21.176;2023-04-15T10:44:44;99818.00;;;10.70
76898;BMP180;65856;52.178;21.176;2023-04-15T10:47:14;99811.80;;;10.70
76898;BMP180;65856;52.178;21.176;2023-04-15T10:49:47;99817.40;;;10.70
76898;BMP180;65856;52.178;21.176;2023-04-15T10:52:17;99814.80;;;10.70
76898;BMP180;65856;52.178;21.176;2023-04-15T10:54:49;99820.20;;;10.70
76898;BMP180;65856;52.178;21.176;2023-04-15T10:57:22;99820.60;;;10.60
76898;BMP180;65856;52.178;21.176;2023-04-15T11:00:13;99827.20;;;10.60
76898;BMP180;65856;52.178;21.176;2023-04-15T11:02:44;99822.00;;;10.60
76898;BMP180;65856;52.178;21.176;2023-04-15T11:05:14;99821.80;;;10.70
76898;BMP180;65856;52.178;21.176;2023-04-15T11:07:51;99815.80;;;10.70
76898;BMP180;65856;52.178;21.176;2023-04-15T11:10:53;99819.80;;;10.70
76898;BMP180;65856;52.178;21.176;2023-04-15T11:13:23;99819.80;;;10.70
76898;BMP180;65856;52.178;21.176;2023-04-15T11:15:57;99819.00;;;10.60
76898;BMP180;65856;52.178;21.176;2023-04-15T11:18:32;99818.80;;;10.64
76898;BMP180;65856;52.178;21.176;2023-04-15T11:21:03;99822.40;;;10.68
76898;BMP180;65856;52.178;21.176;2023-04-15T11:23:36;99826.80;;;10.60
76898;BMP180;65856;52.178;21.176;2023-04-15T11:26:06;99823.80;;;10.60
76898;BMP180;65856;52.178;21.176;2023-04-15T11:28:37;99830.40;;;10.60
76898;BMP180;65856;52.178;21.176;2023-04-15T11:31:11;99830.40;;;10.60
76898;BMP180;65856;52.178;21.176;2023-04-15T11:33:47;99832.20;;;10.60
76898;BMP180;65856;52.178;21.176;2023-04-15T11:36:20;99835.40;;;10.60
76898;BMP180;65856;52.178;21.176;2023-04-15T11:38:48;99839.40;;;10.60
76898;BMP180;65856;52.178;21.176;2023-04-15T11:41:23;99839.60;;;10.70
76898;BMP180;65856;52.178;21.176;2023-04-15T11:43:52;99842.40;;;10.80
76898;BMP180;65856;52.178;21.176;2023-04-15T11:46:27;99844.80;;;10.84
76898;BMP180;65856;52.178;21.176;2023-04-15T11:48:55;99846.00;;;10.84
76898;BMP180;65856;52.178;21.176;2023-04-15T11:51:23;99849.40;;;10.88
76898;BMP180;65856;52.178;21.176;2023-04-15T11:53:51;99850.80;;;10.90
76898;BMP180;65856;52.178;21.176;2023-04-15T11:56:21;99851.80;;;10.90
76898;BMP180;65856;52.178;21.176;2023-04-15T11:58:53;99859.00;;;10.90
76898;BMP180;65856;52.178;21.176;2023-04-15T12:01:31;99859.40;;;10.80
76898;BMP180;65856;52.178;21.176;2023-04-15T12:06:23;99864.20;;;10.82
76898;BMP180;65856;52.178;21.176;2023-04-15T12:08:57;99866.60;;;10.90
76898;BMP180;65856;52.178;21.176;2023-04-15T12:11:38;99869.00;;;10.90
76898;BMP180;65856;52.178;21.176;2023-04-15T12:14:10;99873.00;;;10.90
76898;BMP180;65856;52.178;21.176;2023-04-15T12:16:41;99875.60;;;11.00
76898;BMP180;65856;52.178;21.176;2023-04-15T12:19:13;99877.40;;;10.94
76898;BMP180;65856;52.178;21.176;2023-04-15T12:21:44;99880.00;;;10.90
76898;BMP180;65856;52.178;21.176;2023-04-15T12:24:12;99882.60;;;10.90
76898;BMP180;65856;52.178;21.176;2023-04-15T12:26:45;99880.40;;;10.90
76898;BMP180;65856;52.178;21.176;2023-04-15T12:29:16;99883.60;;;11.00
76898;BMP180;65856;52.178;21.176;2023-04-15T12:31:52;99883.20;;;11.00
76898;BMP180;65856;52.178;21.176;2023-04-15T12:34:28;99882.80;;;11.06
76898;BMP180;65856;52.178;21.176;2023-04-15T12:36:59;99887.20;;;11.10
76898;BMP180;65856;52.178;21.176;2023-04-15T12:39:28;99889.40;;;11.20
76898;BMP180;65856;52.178;21.176;2023-04-15T12:41:56;99887.00;;;11.20
76898;BMP180;65856;52.178;21.176;2023-04-15T12:44:25;99890.00;;;11.20
76898;BMP180;65856;52.178;21.176;2023-04-15T12:46:53;99887.80;;;11.24
76898;BMP180;65856;52.178;21.176;2023-04-15T12:49:23;99890.80;;;11.30
76898;BMP180;65856;52.178;21.176;2023-04-15T12:51:52;99892.60;;;11.30
76898;BMP180;65856;52.178;21.176;2023-04-15T12:54:21;99893.60;;;11.30
76898;BMP180;65856;52.178;21.176;2023-04-15T12:56:51;99892.80;;;11.30
76898;BMP180;65856;52.178;21.176;2023-04-15T12:59:19;99897.20;;;11.36
76898;BMP180;65856;52.178;21.176;2023-04-15T13:01:48;99892.00;;;11.38
76898;BMP180;65856;52.178;21.176;2023-04-15T13:04:16;99902.20;;;11.40
76898;BMP180;65856;52.178;21.176;2023-04-15T13:06:44;99906.20;;;11.50
76898;BMP180;65856;52.178;21.176;2023-04-15T13:09:12;99903.80;;;11.60
76898;BMP180;65856;52.178;21.176;2023-04-15T13:11:40;99910.00;;;11.60
76898;BMP180;65856;52.178;21.176;2023-04-15T13:14:09;99908.20;;;11.60
76898;BMP180;65856;52.178;21.176;2023-04-15T13:16:39;99912.40;;;11.60
76898;BMP180;65856;52.178;21.176;2023-04-15T13:19:07;99921.40;;;11.70
76898;BMP180;65856;52.178;21.176;2023-04-15T13:21:35;99921.60;;;11.68
76898;BMP180;65856;52.178;21.176;2023-04-15T13:24:03;99926.00;;;11.70
76898;BMP180;65856;52.178;21.176;2023-04-15T13:26:38;99928.20;;;11.70
76898;BMP180;65856;52.178;21.176;2023-04-15T13:29:12;99930.00;;;11.74
76898;BMP180;65856;52.178;21.176;2023-04-15T13:31:40;99933.80;;;11.72
76898;BMP180;65856;52.178;21.176;2023-04-15T13:34:08;99935.20;;;11.70
76898;BMP180;65856;52.178;21.176;2023-04-15T13:36:36;99935.60;;;11.70
76898;BMP180;65856;52.178;21.176;2023-04-15T13:39:04;99938.40;;;11.78
76898;BMP180;65856;52.178;21.176;2023-04-15T13:41:32;99940.80;;;11.74
76898;BMP180;65856;52.178;21.176;2023-04-15T13:44:00;99940.20;;;11.70
76898;BMP180;65856;52.178;21.176;2023-04-15T13:46:28;99944.60;;;11.70
76898;BMP180;65856;52.178;21.176;2023-04-15T13:48:56;99942.60;;;11.60
76898;BMP180;65856;52.178;21.176;2023-04-15T13:51:24;99939.60;;;11.60
76898;BMP180;65856;52.178;21.176;2023-04-15T13:53:53;99941.60;;;11.60
76898;BMP180;65856;52.178;21.176;2023-04-15T13:56:21;99942.80;;;11.56
76898;BMP180;65856;52.178;21.176;2023-04-15T13:58:50;99941.00;;;11.58
76898;BMP180;65856;52.178;21.176;2023-04-15T14:01:19;99935.80;;;11.66
76898;BMP180;65856;52.178;21.176;2023-04-15T14:03:47;99934.80;;;11.70
76898;BMP180;65856;52.178;21.176;2023-04-15T14:06:14;99932.60;;;11.80
76898;BMP180;65856;52.178;21.176;2023-04-15T14:08:42;99928.00;;;11.90
76898;BMP180;65856;52.178;21.176;2023-04-15T14:11:11;99931.60;;;11.90
76898;BMP180;65856;52.178;21.176;2023-04-15T14:13:39;99937.20;;;11.94
76898;BMP180;65856;52.178;21.176;2023-04-15T14:16:07;99943.60;;;12.00
76898;BMP180;65856;52.178;21.176;2023-04-15T14:18:35;99943.00;;;12.02
76898;BMP180;65856;52.178;21.176;2023-04-15T14:21:04;99950.20;;;12.10
76898;BMP180;65856;52.178;21.176;2023-04-15T14:23:32;99951.60;;;12.00
76898;BMP180;65856;52.178;21.176;2023-04-15T14:26:00;99943.20;;;11.90
76898;BMP180;65856;52.178;21.176;2023-04-15T14:28:28;99945.60;;;11.80
76898;BMP180;65856;52.178;21.176;2023-04-15T14:30:56;99946.20;;;11.70
76898;BMP180;65856;52.178;21.176;2023-04-15T14:33:24;99949.60;;;11.70
76898;BMP180;65856;52.178;21.176;2023-04-15T14:35:52;99952.80;;;11.70
76898;BMP180;65856;52.178;21.176;2023-04-15T14:38:20;99947.20;;;11.70